Time;durP1;ratioP1;P1;durP2;ratioP2;P2;SDS_P1;SDS_P2;PMS_P1;PMS_P2;Temp;Humidity;BMP_temperature;BMP_pressure;BME280_temperature;BME280_humidity;BME280_pressure;Samples;Min_cycle;Max_cycle;Signal;HPM_P1;HPM_P2
2021/07/18 00:01:02;;;;;;;18.17;15.87;;;22.70;99.90;;;;;;4975924;28;20507;-73
2021/07/18 00:03:28;;;;;;;16.27;14.23;;;22.70;99.90;;;;;;5001540;28;20209;-75
2021/07/18 00:05:53;;;;;;;18.20;14.90;;;22.70;99.90;;;;;;4994962;28;20272;-74
2021/07/18 00:08:20;;;;;;;15.00;13.23;;;22.70;99.90;;;;;;4991489;28;20241;-73
2021/07/18 00:10:47;;;;;;;15.47;13.80;;;22.70;99.90;;;;;;4997776;28;20184;-74
2021/07/18 00:13:13;;;;;;;17.40;13.57;;;22.60;99.90;;;;;;4993142;28;20447;-74
2021/07/18 00:15:39;;;;;;;14.27;12.77;;;22.50;99.90;;;;;;4978218;28;20502;-74
2021/07/18 00:18:04;;;;;;;15.40;11.43;;;22.50;99.90;;;;;;4995647;28;20209;-75
2021/07/18 00:20:30;;;;;;;16.70;13.13;;;22.30;99.90;;;;;;4992039;28;20516;-74
2021/07/18 00:22:56;;;;;;;13.73;12.03;;;22.30;99.90;;;;;;4996114;28;20193;-74
2021/07/18 00:25:22;;;;;;;13.23;11.80;;;22.40;99.90;;;;;;4997090;28;20287;-74
2021/07/18 00:27:47;;;;;;;13.60;11.30;;;22.40;99.90;;;;;;4995812;28;20185;-73
2021/07/18 00:30:13;;;;;;;16.10;11.17;;;22.40;99.90;;;;;;4997275;28;20627;-74
2021/07/18 00:32:39;;;;;;;13.43;10.70;;;22.30;99.90;;;;;;4993842;28;20184;-73
2021/07/18 00:35:06;;;;;;;13.40;12.10;;;22.30;99.90;;;;;;4996235;28;20202;-75
2021/07/18 00:37:31;;;;;;;16.37;11.80;;;22.30;99.90;;;;;;4991394;28;20990;-72
2021/07/18 00:39:57;;;;;;;12.40;10.97;;;22.20;99.90;;;;;;4996002;28;20563;-74
2021/07/18 00:42:23;;;;;;;14.47;13.07;;;22.10;99.90;;;;;;4993882;28;20260;-74
2021/07/18 00:44:49;;;;;;;18.37;12.27;;;22.00;99.90;;;;;;4994340;28;20197;-74
2021/07/18 00:47:14;;;;;;;12.93;10.90;;;22.00;99.90;;;;;;4992598;28;20212;-73
2021/07/18 00:49:40;;;;;;;20.57;13.57;;;21.90;99.90;;;;;;4994050;28;20351;-74
2021/07/18 00:52:08;;;;;;;12.93;11.73;;;21.80;99.90;;;;;;4995828;28;20211;-74
2021/07/18 00:54:34;;;;;;;13.67;11.70;;;21.80;99.90;;;;;;4993984;28;20224;-73
2021/07/18 00:57:01;;;;;;;18.00;12.27;;;21.80;99.90;;;;;;4993471;28;20864;-72
2021/07/18 00:59:28;;;;;;;13.03;11.73;;;21.80;99.90;;;;;;4993742;28;20441;-74
2021/07/18 01:01:54;;;;;;;13.50;11.10;;;21.90;99.90;;;;;;4991318;28;20433;-74
2021/07/18 01:04:20;;;;;;;13.60;10.53;;;21.90;99.90;;;;;;4994860;28;20462;-73
2021/07/18 01:06:47;;;;;;;13.17;11.60;;;21.80;99.90;;;;;;4989087;28;20466;-73
2021/07/18 01:09:13;;;;;;;12.77;10.20;;;21.70;99.90;;;;;;4995685;28;20950;-74
2021/07/18 01:11:38;;;;;;;13.87;10.90;;;21.70;99.90;;;;;;4991956;28;20463;-73
2021/07/18 01:14:05;;;;;;;13.10;11.00;;;21.50;99.90;;;;;;4990792;28;20208;-75
2021/07/18 01:16:30;;;;;;;12.30;11.00;;;21.50;99.90;;;;;;4994614;28;20222;-74
2021/07/18 01:18:56;;;;;;;13.13;9.60;;;21.50;99.90;;;;;;4993779;28;20805;-74
2021/07/18 01:21:24;;;;;;;11.60;10.40;;;21.40;99.90;;;;;;4978576;28;20618;-73
2021/07/18 01:23:50;;;;;;;12.67;10.50;;;21.40;99.90;;;;;;4993058;28;20515;-74
2021/07/18 01:26:16;;;;;;;11.37;10.27;;;21.40;99.90;;;;;;4995579;28;20472;-73
2021/07/18 01:28:42;;;;;;;13.30;10.87;;;21.30;99.90;;;;;;4991160;28;20457;-74
2021/07/18 01:31:08;;;;;;;11.03;10.00;;;21.30;99.90;;;;;;4995755;28;20490;-73
2021/07/18 01:33:34;;;;;;;9.43;8.30;;;21.40;99.90;;;;;;4994480;28;20213;-72
2021/07/18 01:36:00;;;;;;;10.70;8.30;;;21.50;99.90;;;;;;4991732;28;20955;-72
2021/07/18 01:38:26;;;;;;;9.87;8.50;;;21.50;99.90;;;;;;4994203;28;20229;-72
2021/07/18 01:40:52;;;;;;;13.90;8.50;;;21.60;99.90;;;;;;4994346;28;20439;-72
2021/07/18 01:43:17;;;;;;;8.83;7.97;;;21.40;99.90;;;;;;4993936;28;20185;-72
2021/07/18 01:45:43;;;;;;;9.87;8.50;;;21.30;99.90;;;;;;4993498;28;20466;-73
2021/07/18 01:48:09;;;;;;;8.93;7.70;;;21.30;99.90;;;;;;4991226;28;20192;-73
2021/07/18 01:50:35;;;;;;;11.00;7.80;;;21.30;99.90;;;;;;4994732;28;20205;-73
2021/07/18 01:53:02;;;;;;;8.43;7.63;;;21.30;99.90;;;;;;4993631;28;20205;-73
2021/07/18 01:55:28;;;;;;;8.80;8.00;;;21.30;99.90;;;;;;4989541;28;20217;-73
2021/07/18 01:57:54;;;;;;;11.20;7.50;;;21.30;99.90;;;;;;4993866;28;20906;-74
2021/07/18 02:00:20;;;;;;;6.93;6.23;;;21.30;99.90;;;;;;4993097;28;20197;-72
2021/07/18 02:02:48;;;;;;;9.40;6.30;;;21.30;99.90;;;;;;4997071;28;20304;-74
2021/07/18 02:05:17;;;;;;;5.93;5.17;;;21.10;99.90;;;;;;4993369;28;20208;-74
2021/07/18 02:07:46;;;;;;;6.43;5.83;;;21.10;99.90;;;;;;4996985;28;20436;-74
2021/07/18 02:10:16;;;;;;;7.20;6.20;;;21.10;99.90;;;;;;4995646;28;20432;-74
2021/07/18 02:12:42;;;;;;;7.10;5.57;;;21.10;99.90;;;;;;4995910;28;20447;-73
2021/07/18 02:15:11;;;;;;;7.57;5.53;;;20.80;99.90;;;;;;4994345;28;20586;-74
2021/07/18 02:17:37;;;;;;;5.53;5.00;;;21.00;99.90;;;;;;4993558;28;20476;-73
2021/07/18 02:20:09;;;;;;;9.53;6.00;;;20.90;99.90;;;;;;4997817;28;20423;-72
2021/07/18 02:22:49;;;;;;;6.23;5.17;;;20.90;99.90;;;;;;4995313;28;20460;-73
2021/07/18 02:25:17;;;;;;;5.77;5.13;;;20.90;99.90;;;;;;4995148;28;20443;-74
2021/07/18 02:27:43;;;;;;;6.70;5.63;;;20.90;99.90;;;;;;4998408;28;20447;-73
2021/07/18 02:30:12;;;;;;;7.37;5.40;;;20.90;99.90;;;;;;4978445;28;20481;-73
2021/07/18 02:32:38;;;;;;;7.30;5.70;;;20.80;99.90;;;;;;4996520;28;20590;-73
2021/07/18 02:35:06;;;;;;;5.93;4.90;;;20.90;99.90;;;;;;4978126;28;20522;-73
2021/07/18 02:37:32;;;;;;;7.13;5.93;;;20.80;99.90;;;;;;4996139;28;20812;-73
2021/07/18 02:39:57;;;;;;;6.10;5.50;;;20.70;99.90;;;;;;4995582;28;20522;-72
2021/07/18 02:42:23;;;;;;;8.43;4.97;;;20.70;99.90;;;;;;4980575;28;20539;-74
2021/07/18 02:44:49;;;;;;;7.73;5.10;;;20.80;99.90;;;;;;4993233;28;20291;-72
2021/07/18 02:47:15;;;;;;;6.07;4.80;;;20.70;99.90;;;;;;4994930;28;20197;-73
2021/07/18 02:49:40;;;;;;;7.57;5.10;;;20.70;99.90;;;;;;4994135;28;20251;-73
2021/07/18 02:52:08;;;;;;;8.67;5.90;;;20.60;99.90;;;;;;4993350;28;20248;-73
2021/07/18 02:54:35;;;;;;;5.70;4.77;;;20.60;99.90;;;;;;4995635;28;20351;-73
2021/07/18 02:57:00;;;;;;;6.10;5.50;;;20.60;99.90;;;;;;4996543;28;20531;-74
2021/07/18 02:59:26;;;;;;;8.30;4.97;;;20.50;99.90;;;;;;4992968;28;20472;-74
2021/07/18 03:01:52;;;;;;;7.37;5.00;;;20.70;99.90;;;;;;4996248;28;20284;-76
2021/07/18 03:04:17;;;;;;;8.50;6.10;;;20.60;99.90;;;;;;4993775;28;20261;-75
2021/07/18 03:06:43;;;;;;;5.20;4.70;;;20.60;99.90;;;;;;4995619;28;20205;-74
2021/07/18 03:09:09;;;;;;;8.00;5.50;;;20.60;99.90;;;;;;4996805;28;20206;-74
2021/07/18 03:11:35;;;;;;;7.67;5.60;;;20.50;99.90;;;;;;4993215;28;20213;-73
2021/07/18 03:14:00;;;;;;;6.87;4.70;;;20.50;99.90;;;;;;4993249;28;21157;-74
2021/07/18 03:16:26;;;;;;;7.43;4.87;;;20.60;99.90;;;;;;4995836;28;20686;-75
2021/07/18 03:18:52;;;;;;;6.20;4.80;;;20.70;99.90;;;;;;4985577;28;20185;-74
2021/07/18 03:21:17;;;;;;;5.03;4.03;;;20.60;99.90;;;;;;4993284;28;20216;-74
2021/07/18 03:23:43;;;;;;;5.33;4.33;;;20.60;99.90;;;;;;4994600;28;20683;-74
2021/07/18 03:26:09;;;;;;;4.67;4.00;;;20.60;99.90;;;;;;4992921;28;20186;-75
2021/07/18 03:28:34;;;;;;;7.00;4.27;;;20.50;99.90;;;;;;4993691;28;20240;-74
2021/07/18 03:31:00;;;;;;;7.13;4.47;;;20.30;99.90;;;;;;4993913;28;20198;-73
2021/07/18 03:33:26;;;;;;;9.10;3.97;;;20.40;99.90;;;;;;4993971;28;20236;-74
2021/07/18 03:35:52;;;;;;;7.70;4.40;;;20.30;99.90;;;;;;4977398;28;20196;-73
2021/07/18 03:38:19;;;;;;;7.00;4.20;;;20.40;99.90;;;;;;4997270;28;20205;-74
2021/07/18 03:40:44;;;;;;;4.53;4.13;;;20.40;99.90;;;;;;4996455;28;20438;-73
2021/07/18 03:43:10;;;;;;;6.70;4.93;;;20.10;99.90;;;;;;4992157;28;20429;-72
2021/07/18 03:45:36;;;;;;;11.90;4.80;;;20.00;99.90;;;;;;4992247;28;20228;-74
2021/07/18 03:48:02;;;;;;;5.00;4.50;;;20.00;99.90;;;;;;4990751;28;20194;-73
2021/07/18 03:50:27;;;;;;;6.13;4.70;;;20.10;99.90;;;;;;4994594;28;20281;-73
2021/07/18 03:52:54;;;;;;;6.10;5.50;;;20.20;99.90;;;;;;4992400;28;20742;-73
2021/07/18 03:55:20;;;;;;;7.33;4.90;;;20.00;99.90;;;;;;4993557;28;20599;-74
2021/07/18 03:57:45;;;;;;;6.23;4.70;;;20.10;99.90;;;;;;4987295;28;20467;-72
2021/07/18 04:00:12;;;;;;;7.10;5.97;;;20.20;99.90;;;;;;4996557;28;20604;-74
2021/07/18 04:02:38;;;;;;;5.10;4.37;;;20.20;99.90;;;;;;4992834;28;20220;-74
2021/07/18 04:05:04;;;;;;;6.20;4.70;;;20.20;99.90;;;;;;4994285;28;20467;-74
2021/07/18 04:07:32;;;;;;;9.33;4.43;;;20.10;99.90;;;;;;4999076;28;20189;-74
2021/07/18 04:10:00;;;;;;;6.00;4.50;;;20.00;99.90;;;;;;4995009;28;20530;-74
2021/07/18 04:12:26;;;;;;;6.60;5.00;;;20.10;99.90;;;;;;4998191;28;20546;-74
2021/07/18 04:14:52;;;;;;;4.70;4.30;;;20.10;99.90;;;;;;4998057;28;20883;-74
2021/07/18 04:17:17;;;;;;;8.43;4.90;;;20.10;99.90;;;;;;4994790;28;20495;-73
2021/07/18 04:19:43;;;;;;;5.70;4.53;;;20.00;99.90;;;;;;4997923;28;20443;-73
2021/07/18 04:22:09;;;;;;;5.07;4.57;;;20.00;99.90;;;;;;4997859;28;20193;-74
2021/07/18 04:24:34;;;;;;;6.10;4.83;;;19.80;99.90;;;;;;4995931;28;20209;-74
2021/07/18 04:27:00;;;;;;;7.13;5.33;;;19.90;99.90;;;;;;4998057;28;20567;-73
2021/07/18 04:29:26;;;;;;;8.70;5.30;;;20.00;99.90;;;;;;4996177;28;20224;-74
2021/07/18 04:31:52;;;;;;;9.80;5.60;;;19.90;99.90;;;;;;4999208;28;20197;-73
2021/07/18 04:34:18;;;;;;;7.33;5.13;;;19.90;99.90;;;;;;4994405;28;20224;-73
2021/07/18 04:36:45;;;;;;;10.77;5.10;;;20.00;99.90;;;;;;5000774;28;20217;-73
2021/07/18 04:39:10;;;;;;;7.37;6.00;;;19.90;99.90;;;;;;4994850;28;20425;-73
2021/07/18 04:41:37;;;;;;;4.77;4.33;;;20.10;99.90;;;;;;5000664;28;20488;-73
2021/07/18 04:44:04;;;;;;;4.50;4.07;;;20.10;99.90;;;;;;4999106;28;20221;-73
2021/07/18 04:46:30;;;;;;;8.30;4.33;;;20.10;99.90;;;;;;4991257;28;20444;-74
2021/07/18 04:48:55;;;;;;;9.00;4.60;;;20.00;99.90;;;;;;4997990;28;20441;-73
2021/07/18 04:51:21;;;;;;;6.60;4.90;;;20.00;99.90;;;;;;4998594;28;20201;-74
2021/07/18 04:53:47;;;;;;;7.60;4.37;;;20.00;99.90;;;;;;4995727;28;20251;-74
2021/07/18 04:56:13;;;;;;;6.93;4.43;;;20.10;99.90;;;;;;4978412;28;20710;-74
2021/07/18 04:58:39;;;;;;;4.83;4.10;;;20.10;99.90;;;;;;4998772;28;20576;-74
2021/07/18 05:01:05;;;;;;;6.63;4.17;;;20.10;99.90;;;;;;4996371;28;20490;-74
2021/07/18 05:03:31;;;;;;;4.27;3.77;;;20.00;99.90;;;;;;4994860;28;20737;-75
2021/07/18 05:05:57;;;;;;;5.60;3.97;;;20.10;99.90;;;;;;4998981;28;20179;-74
2021/07/18 05:08:22;;;;;;;4.60;3.90;;;20.20;99.90;;;;;;4995349;28;20443;-73
2021/07/18 05:10:51;;;;;;;4.63;4.03;;;20.20;99.90;;;;;;4995452;28;20683;-74
2021/07/18 05:13:17;;;;;;;6.80;4.00;;;20.20;99.90;;;;;;4995098;28;20189;-75
2021/07/18 05:15:42;;;;;;;5.37;4.63;;;20.40;99.90;;;;;;4993943;28;20433;-73
2021/07/18 05:18:13;;;;;;;4.90;4.27;;;20.40;99.90;;;;;;4998236;28;20202;-75
2021/07/18 05:20:39;;;;;;;4.83;4.33;;;20.20;99.90;;;;;;4998179;28;20280;-75
2021/07/18 05:23:05;;;;;;;5.23;3.90;;;20.30;99.90;;;;;;4997482;28;20447;-75
2021/07/18 05:25:31;;;;;;;4.60;3.73;;;20.30;99.90;;;;;;4997519;28;20468;-75
2021/07/18 05:27:56;;;;;;;5.57;3.83;;;20.50;99.90;;;;;;4997773;28;20206;-74
2021/07/18 05:30:22;;;;;;;6.83;3.27;;;20.40;99.90;;;;;;4998388;28;20197;-73
2021/07/18 05:32:48;;;;;;;8.97;3.67;;;20.40;99.90;;;;;;4993987;28;20284;-74
2021/07/18 05:35:13;;;;;;;5.37;3.20;;;20.40;99.90;;;;;;4998697;28;20602;-74
2021/07/18 05:37:39;;;;;;;5.27;3.67;;;20.40;99.90;;;;;;4994057;28;20267;-74
2021/07/18 05:40:07;;;;;;;4.47;4.10;;;20.40;99.90;;;;;;4997723;28;20188;-74
2021/07/18 05:42:33;;;;;;;8.03;4.10;;;20.40;99.90;;;;;;4996286;28;20264;-74
2021/07/18 05:44:58;;;;;;;5.13;3.77;;;20.20;99.90;;;;;;4996508;28;21039;-74
2021/07/18 05:47:25;;;;;;;5.53;3.13;;;20.30;99.90;;;;;;4996838;28;20467;-74
2021/07/18 05:49:51;;;;;;;4.33;3.77;;;20.40;99.90;;;;;;4991943;28;20201;-75
2021/07/18 05:52:17;;;;;;;6.63;3.90;;;20.40;99.90;;;;;;4994239;28;20437;-75
2021/07/18 05:54:43;;;;;;;5.63;3.70;;;20.40;99.90;;;;;;4996716;28;20481;-74
2021/07/18 05:57:09;;;;;;;4.00;3.53;;;20.40;99.90;;;;;;4997028;28;20248;-73
2021/07/18 05:59:34;;;;;;;5.70;3.33;;;20.40;99.90;;;;;;4996621;28;20187;-73
2021/07/18 06:02:00;;;;;;;7.57;4.80;;;20.40;99.90;;;;;;4994693;28;20288;-73
2021/07/18 06:04:27;;;;;;;6.83;4.27;;;20.40;99.90;;;;;;4996344;28;20271;-74
2021/07/18 06:06:53;;;;;;;5.20;4.63;;;20.40;99.90;;;;;;4991688;28;20195;-72
2021/07/18 06:09:19;;;;;;;4.53;4.07;;;20.30;99.90;;;;;;4994008;28;20460;-73
2021/07/18 06:11:45;;;;;;;4.30;3.90;;;20.40;99.90;;;;;;4993099;28;20474;-73
2021/07/18 06:14:10;;;;;;;7.87;3.23;;;20.30;99.90;;;;;;4995439;28;20828;-74
2021/07/18 06:16:36;;;;;;;4.60;3.97;;;20.40;99.90;;;;;;4998557;28;20209;-74
2021/07/18 06:19:02;;;;;;;10.40;3.63;;;20.40;99.90;;;;;;4994463;28;20185;-74
2021/07/18 06:21:28;;;;;;;3.33;2.97;;;20.40;99.90;;;;;;4997094;28;20193;-74
2021/07/18 06:23:53;;;;;;;4.43;4.03;;;20.40;99.90;;;;;;4995430;28;20769;-72
2021/07/18 06:26:19;;;;;;;7.70;4.30;;;20.40;99.90;;;;;;4998121;28;20182;-74
2021/07/18 06:28:45;;;;;;;6.37;3.33;;;20.40;99.90;;;;;;4991953;28;20181;-74
2021/07/18 06:31:11;;;;;;;4.33;3.30;;;20.50;99.90;;;;;;4996322;28;20272;-74
2021/07/18 06:33:37;;;;;;;6.63;5.30;;;20.60;99.90;;;;;;4995531;28;20444;-74
2021/07/18 06:36:03;;;;;;;5.53;3.40;;;20.50;99.90;;;;;;4992796;28;20190;-73
2021/07/18 06:38:29;;;;;;;3.17;2.83;;;20.60;99.90;;;;;;4997175;28;20557;-74
2021/07/18 06:40:54;;;;;;;3.63;3.33;;;20.50;99.90;;;;;;4993889;28;20850;-74
2021/07/18 06:43:20;;;;;;;6.83;3.27;;;20.50;99.90;;;;;;4995824;28;20202;-73
2021/07/18 06:45:45;;;;;;;8.27;2.87;;;20.50;99.90;;;;;;4998665;28;20189;-74
2021/07/18 06:48:11;;;;;;;3.90;3.50;;;20.50;99.90;;;;;;4994303;28;20220;-74
2021/07/18 06:50:37;;;;;;;3.03;2.73;;;20.70;99.90;;;;;;4997169;28;20181;-74
2021/07/18 06:53:03;;;;;;;5.63;3.03;;;20.70;99.90;;;;;;4978031;28;20223;-75
2021/07/18 06:55:28;;;;;;;4.67;3.90;;;20.80;99.90;;;;;;4992888;28;20198;-75
2021/07/18 06:57:54;;;;;;;4.43;3.10;;;20.80;99.90;;;;;;4989014;28;20228;-75
2021/07/18 07:00:21;;;;;;;5.03;3.30;;;20.90;99.90;;;;;;4995393;28;20181;-74
2021/07/18 07:02:47;;;;;;;3.10;2.77;;;21.00;99.90;;;;;;4989123;28;20664;-73
2021/07/18 07:05:13;;;;;;;5.20;3.07;;;21.00;99.90;;;;;;4991702;28;20474;-75
2021/07/18 07:07:46;;;;;;;8.77;3.80;;;20.90;99.90;;;;;;4996575;28;20196;-73
2021/07/18 07:10:13;;;;;;;6.03;4.60;;;20.90;99.90;;;;;;4993182;28;20653;-74
2021/07/18 07:12:38;;;;;;;4.80;3.67;;;21.10;99.90;;;;;;4994034;28;21113;-73
2021/07/18 07:15:11;;;;;;;4.47;3.03;;;21.10;99.90;;;;;;4995997;23;20496;-73
2021/07/18 07:17:43;;;;;;;4.00;3.10;;;21.10;99.90;;;;;;4998131;28;20230;-75
2021/07/18 07:20:14;;;;;;;10.70;2.93;;;21.20;99.90;;;;;;4977260;28;21024;-75
2021/07/18 07:22:40;;;;;;;4.30;2.80;;;21.20;99.90;;;;;;4980418;28;20441;-73
2021/07/18 07:25:15;;;;;;;3.27;2.97;;;21.20;99.90;;;;;;4981101;28;20511;-74
2021/07/18 07:27:48;;;;;;;5.23;3.37;;;21.40;99.90;;;;;;4997684;28;20954;-75
2021/07/18 07:30:15;;;;;;;4.80;3.43;;;21.40;99.90;;;;;;4995121;28;20460;-74
2021/07/18 07:32:41;;;;;;;3.90;3.00;;;21.50;99.90;;;;;;4982130;28;20752;-74
2021/07/18 07:35:12;;;;;;;4.57;3.23;;;21.50;99.90;;;;;;4974124;28;20979;-73
2021/07/18 07:37:39;;;;;;;4.23;2.70;;;21.50;99.90;;;;;;4980059;28;20656;-72
2021/07/18 07:40:08;;;;;;;2.83;2.40;;;21.50;99.90;;;;;;4980714;28;20539;-73
2021/07/18 07:42:34;;;;;;;3.63;3.17;;;21.60;99.90;;;;;;4979584;28;20963;-74
2021/07/18 07:45:00;;;;;;;3.73;3.00;;;21.50;99.90;;;;;;4963502;28;20437;-74
2021/07/18 07:47:26;;;;;;;3.40;3.10;;;21.60;99.90;;;;;;4979875;28;20483;-74
2021/07/18 07:49:52;;;;;;;6.67;3.20;;;21.70;99.90;;;;;;4980770;28;20289;-73
2021/07/18 07:52:18;;;;;;;3.40;3.07;;;21.80;99.90;;;;;;4964392;28;21034;-72
2021/07/18 07:54:44;;;;;;;3.37;2.90;;;21.90;99.90;;;;;;4979517;28;20233;-71
2021/07/18 07:57:10;;;;;;;4.33;3.10;;;22.00;99.90;;;;;;4983601;28;20998;-72
2021/07/18 07:59:36;;;;;;;3.77;3.30;;;22.00;99.90;;;;;;4999418;28;20853;-72
2021/07/18 08:02:02;;;;;;;5.43;3.47;;;22.00;99.90;;;;;;4984125;28;20524;-73
2021/07/18 08:05:25;;;;;;;4.10;3.70;;;22.00;99.90;;;;;;5159103;27;20337;-65
2021/07/18 08:11:38;;;;;;;3.73;3.37;;;21.90;99.90;;;;;;5126642;27;20484;-67
2021/07/18 08:14:59;;;;;;;3.37;2.93;;;22.00;99.90;;;;;;5092010;27;20455;-66
2021/07/18 08:21:27;;;;;;;4.50;3.10;;;22.00;99.90;;;;;;5016339;28;20434;-68
2021/07/18 08:24:49;;;;;;;3.27;2.97;;;22.10;99.90;;;;;;5070817;28;20844;-67
2021/07/18 08:28:12;;;;;;;3.50;2.77;;;22.00;99.90;;;;;;4979948;28;20975;-66
2021/07/18 08:37:52;;;;;;;4.90;2.90;;;22.10;99.90;;;;;;4987431;28;20416;-67
2021/07/18 08:50:58;;;;;;;4.30;2.97;;;22.40;99.90;;;;;;5035715;28;20422;-67
2021/07/18 08:53:29;;;;;;;4.13;3.20;;;22.50;99.90;;;;;;5007498;28;20465;-66
2021/07/18 08:56:10;;;;;;;4.73;2.63;;;22.70;99.90;;;;;;5015601;28;20504;-66
2021/07/18 09:02:56;;;;;;;6.17;3.20;;;22.90;99.90;;;;;;4950109;28;20558;-68
2021/07/18 09:05:52;;;;;;;4.00;2.90;;;22.90;99.90;;;;;;5021107;28;20435;-66
2021/07/18 10:33:54;;;;;;;6.20;3.60;;;24.20;99.90;;;;;;5304671;22;22153;-73
2021/07/18 10:36:22;;;;;;;3.97;3.57;;;24.40;99.90;;;;;;5017092;28;20506;-73
2021/07/18 10:38:48;;;;;;;3.57;3.27;;;24.50;99.90;;;;;;4989937;28;20532;-74
2021/07/18 10:41:15;;;;;;;9.60;5.60;;;24.60;99.90;;;;;;5018570;28;20459;-74
2021/07/18 10:43:50;;;;;;;4.73;4.33;;;24.60;99.90;;;;;;4957584;28;20224;-74
2021/07/18 10:46:41;;;;;;;4.37;3.97;;;24.50;99.90;;;;;;5018199;28;20513;-73
2021/07/18 10:49:14;;;;;;;5.70;4.37;;;24.50;99.90;;;;;;5002451;28;20805;-76
2021/07/18 10:51:50;;;;;;;4.83;3.10;;;24.60;99.90;;;;;;5013806;28;20916;-73
2021/07/18 10:54:21;;;;;;;6.90;3.27;;;24.70;99.90;;;;;;5011516;28;20483;-76
2021/07/18 10:56:57;;;;;;;4.20;3.53;;;24.80;99.90;;;;;;5004970;28;20443;-76
2021/07/18 10:59:41;;;;;;;5.57;4.13;;;24.90;99.90;;;;;;5025827;28;20423;-74
2021/07/18 11:02:18;;;;;;;6.40;4.07;;;25.00;99.90;;;;;;5014861;28;20446;-78
2021/07/18 11:04:53;;;;;;;6.63;3.93;;;25.10;99.90;;;;;;5000212;28;21147;-74
2021/07/18 11:07:23;;;;;;;5.20;4.03;;;25.30;99.90;;;;;;5025926;28;20489;-77
2021/07/18 11:09:55;;;;;;;5.03;3.50;;;25.40;99.90;;;;;;5007971;28;20487;-75
2021/07/18 11:12:34;;;;;;;5.90;3.40;;;25.40;99.90;;;;;;5021203;28;20478;-78
2021/07/18 11:15:30;;;;;;;5.73;3.80;;;25.40;99.90;;;;;;4995061;28;20459;-75
2021/07/18 11:18:09;;;;;;;5.97;3.27;;;25.60;99.90;;;;;;5006209;28;20482;-73
2021/07/18 11:20:47;;;;;;;3.67;3.27;;;25.70;99.90;;;;;;5021879;28;20833;-74
2021/07/18 11:23:21;;;;;;;4.70;3.77;;;25.70;99.90;;;;;;5002753;28;21017;-73
2021/07/18 11:25:53;;;;;;;4.80;3.70;;;25.90;99.90;;;;;;5007153;28;20435;-73
2021/07/18 11:28:31;;;;;;;12.53;5.07;;;26.20;99.90;;;;;;5007148;28;20428;-73
2021/07/18 11:31:09;;;;;;;3.83;3.07;;;26.10;99.90;;;;;;5021216;28;20430;-73
2021/07/18 11:33:45;;;;;;;4.00;2.97;;;26.20;99.90;;;;;;5005275;28;20564;-73
2021/07/18 11:36:21;;;;;;;6.40;3.67;;;26.40;99.90;;;;;;5022554;28;20468;-74
2021/07/18 11:38:48;;;;;;;9.37;3.50;;;26.30;99.90;;;;;;5020034;28;20438;-73
2021/07/18 11:41:39;;;;;;;4.67;3.43;;;26.20;99.90;;;;;;5004488;28;20451;-73
2021/07/18 11:44:05;;;;;;;6.93;5.37;;;26.30;99.90;;;;;;5020216;28;20518;-73
2021/07/18 11:46:33;;;;;;;4.30;3.80;;;26.40;99.90;;;;;;5023433;28;20439;-72
2021/07/18 11:49:01;;;;;;;5.80;4.30;;;26.60;99.90;;;;;;5020471;28;20859;-71
2021/07/18 11:51:29;;;;;;;4.47;3.47;;;26.90;99.90;;;;;;5022005;28;20434;-74
2021/07/18 11:53:58;;;;;;;4.80;3.77;;;27.20;99.90;;;;;;5021298;28;20458;-74
2021/07/18 11:56:27;;;;;;;3.90;3.27;;;27.40;99.90;;;;;;5021373;28;20497;-74
2021/07/18 11:58:58;;;;;;;6.50;4.13;;;27.50;99.90;;;;;;5020720;28;20570;-73
2021/07/18 12:01:25;;;;;;;5.83;3.77;;;27.80;99.90;;;;;;5020928;28;20924;-73
2021/07/18 12:03:51;;;;;;;6.07;4.30;;;27.80;99.90;;;;;;5022074;28;22597;-73
2021/07/18 12:06:19;;;;;;;4.03;3.50;;;28.10;99.90;;;;;;5018567;28;20908;-73
2021/07/18 12:08:45;;;;;;;4.03;3.53;;;28.50;99.90;;;;;;5020336;28;20996;-73
2021/07/18 12:11:13;;;;;;;4.83;3.17;;;28.80;99.90;;;;;;5019756;28;20473;-74
2021/07/18 12:13:47;;;;;;;5.20;3.40;;;29.50;99.90;;;;;;4999039;28;20471;-73
2021/07/18 12:16:14;;;;;;;7.50;3.80;;;30.50;99.90;;;;;;5019699;28;20473;-74
2021/07/18 12:18:51;;;;;;;3.60;3.17;;;31.80;99.90;;;;;;5001898;28;20451;-74
2021/07/18 12:21:21;;;;;;;5.20;3.90;;;32.60;99.90;;;;;;5020196;28;20471;-74
2021/07/18 12:24:12;;;;;;;6.43;4.00;;;33.10;99.90;;;;;;5018667;28;20478;-74
2021/07/18 12:26:38;;;;;;;4.40;3.60;;;33.60;99.90;;;;;;5021072;28;20423;-74
2021/07/18 12:29:05;;;;;;;5.17;4.17;;;33.80;99.90;;;;;;5020211;28;20843;-75
2021/07/18 12:31:31;;;;;;;4.50;3.67;;;34.00;99.90;;;;;;5019600;28;20443;-75
2021/07/18 12:33:57;;;;;;;4.57;4.17;;;34.80;99.90;;;;;;5019976;28;20536;-72
2021/07/18 12:36:23;;;;;;;6.97;6.20;;;35.30;96.80;;;;;;5020618;28;21063;-73
2021/07/18 12:38:49;;;;;;;6.97;5.57;;;36.00;95.80;;;;;;5019280;28;20439;-73
2021/07/18 12:41:15;;;;;;;7.33;4.47;;;35.60;93.50;;;;;;5019258;28;20588;-73
2021/07/18 12:43:41;;;;;;;5.33;4.80;;;35.10;92.50;;;;;;5018988;28;20228;-74
2021/07/18 12:46:10;;;;;;;6.60;4.07;;;35.20;91.80;;;;;;5018841;28;20487;-73
2021/07/18 12:48:36;;;;;;;4.90;3.93;;;35.10;91.00;;;;;;5018546;28;20553;-74
2021/07/18 12:51:15;;;;;;;5.43;4.60;;;36.00;90.70;;;;;;5021811;28;20497;-74
2021/07/18 12:53:41;;;;;;;12.50;5.47;;;36.90;86.70;;;;;;5024927;28;20290;-74
2021/07/18 12:56:10;;;;;;;5.53;4.70;;;37.50;84.90;;;;;;5024499;28;20447;-74
2021/07/18 12:58:42;;;;;;;4.53;4.13;;;37.90;78.40;;;;;;5007142;28;20418;-73
2021/07/18 13:01:14;;;;;;;6.57;4.30;;;38.20;74.60;;;;;;5019953;28;21255;-74
2021/07/18 13:03:41;;;;;;;5.60;5.00;;;38.00;72.20;;;;;;5020184;28;20463;-76
2021/07/18 13:06:18;;;;;;;6.20;5.07;;;38.00;71.10;;;;;;5020837;28;20414;-74
2021/07/18 13:08:52;;;;;;;5.70;5.20;;;37.10;70.60;;;;;;5020102;28;20478;-73
2021/07/18 13:11:41;;;;;;;5.43;4.83;;;36.90;70.90;;;;;;5024401;28;20398;-72
2021/07/18 13:14:28;;;;;;;5.60;5.00;;;37.40;70.30;;;;;;5021332;28;20425;-74
2021/07/18 13:17:17;;;;;;;5.57;5.03;;;37.80;67.80;;;;;;5023647;28;20421;-73
2021/07/18 13:20:02;;;;;;;6.00;5.03;;;37.80;66.30;;;;;;5021540;28;20558;-73
2021/07/18 13:22:29;;;;;;;5.97;5.37;;;38.10;63.90;;;;;;5021606;28;20436;-72
2021/07/18 13:24:55;;;;;;;6.40;5.80;;;37.70;63.80;;;;;;5023906;28;20463;-73
2021/07/18 13:27:22;;;;;;;6.20;5.57;;;37.70;61.80;;;;;;5022119;28;21002;-72
2021/07/18 13:29:53;;;;;;;7.27;6.57;;;37.50;65.30;;;;;;5021241;28;20188;-72
2021/07/18 13:32:25;;;;;;;7.03;6.43;;;37.70;61.90;;;;;;5023757;28;21349;-71
2021/07/18 13:34:56;;;;;;;8.23;7.40;;;37.90;59.40;;;;;;5020931;28;20426;-73
2021/07/18 13:37:45;;;;;;;7.17;6.57;;;37.80;61.00;;;;;;5021191;28;20453;-73
2021/07/18 13:40:42;;;;;;;7.20;6.50;;;38.10;58.80;;;;;;5024089;28;20765;-73
2021/07/18 13:43:14;;;;;;;6.73;6.10;;;39.80;58.20;;;;;;5008876;28;20477;-73
2021/07/18 13:45:42;;;;;;;7.77;6.33;;;41.40;54.90;;;;;;5022754;28;20421;-72
2021/07/18 13:48:11;;;;;;;6.53;5.93;;;42.60;53.00;;;;;;5022146;28;20428;-73
2021/07/18 13:50:39;;;;;;;6.20;5.70;;;43.90;50.40;;;;;;5023343;28;20448;-73
2021/07/18 13:53:05;;;;;;;6.03;5.60;;;45.30;46.90;;;;;;5023850;28;20947;-74
2021/07/18 13:55:32;;;;;;;5.80;5.30;;;45.30;44.00;;;;;;5000736;28;20582;-73
2021/07/18 13:57:57;;;;;;;5.30;4.90;;;45.30;42.90;;;;;;5022654;28;20438;-73
2021/07/18 14:00:23;;;;;;;5.43;4.93;;;46.30;41.70;;;;;;5023627;28;20199;-73
2021/07/18 14:02:49;;;;;;;5.77;5.17;;;47.50;40.60;;;;;;5023780;28;20618;-73
2021/07/18 14:05:15;;;;;;;7.03;6.43;;;48.80;38.80;;;;;;5023040;28;20763;-73
2021/07/18 14:07:43;;;;;;;6.10;5.50;;;49.10;37.80;;;;;;5023282;28;20306;-74
2021/07/18 14:10:10;;;;;;;6.27;5.77;;;48.30;36.30;;;;;;5023772;28;20279;-73
2021/07/18 14:12:40;;;;;;;6.20;5.70;;;47.90;36.80;;;;;;5021498;28;20454;-74
2021/07/18 14:15:11;;;;;;;5.70;5.10;;;48.90;36.70;;;;;;5021936;28;20546;-74
2021/07/18 14:17:36;;;;;;;5.23;4.63;;;49.60;35.90;;;;;;5020350;28;20505;-73
2021/07/18 14:20:06;;;;;;;5.10;4.70;;;50.20;35.30;;;;;;5021738;28;20438;-74
2021/07/18 14:22:31;;;;;;;4.38;3.97;;;50.80;34.30;;;;;;5023327;28;20187;-74
2021/07/18 14:24:57;;;;;;;4.25;3.85;;;51.10;33.10;;;;;;5022288;28;20212;-73
2021/07/18 14:27:23;;;;;;;4.82;4.43;;;50.20;32.40;;;;;;5022163;28;20254;-73
2021/07/18 14:29:48;;;;;;;3.60;3.35;;;50.20;33.90;;;;;;5022318;28;20224;-73
2021/07/18 14:32:14;;;;;;;3.40;3.10;;;50.70;32.60;;;;;;5019352;28;20191;-74
2021/07/18 14:34:39;;;;;;;4.10;3.70;;;50.70;32.40;;;;;;5022495;28;20208;-72
2021/07/18 14:37:05;;;;;;;3.40;3.10;;;51.70;32.50;;;;;;5020239;28;20238;-73
2021/07/18 14:39:34;;;;;;;3.20;2.90;;;51.60;32.40;;;;;;5021854;28;20874;-76
2021/07/18 14:42:00;;;;;;;2.97;2.78;;;50.00;31.10;;;;;;5005634;28;20192;-76
2021/07/18 14:44:25;;;;;;;2.85;2.65;;;49.10;32.20;;;;;;5021339;28;20215;-75
2021/07/18 14:46:54;;;;;;;3.75;2.78;;;49.20;32.10;;;;;;5003031;28;20258;-75